CheckWX is a tool to help pilots better visualize weather data.  It is not intended as a substitute for an official pre-flight weather briefing.

00:30:43 UTC

CYXJ TAF
Fort St John Airport
Fort St.John, Canada
TAF CYXJ 161841Z 1619/1707 25008KT P6SM OVC010 TEMPO 1619/1621 SCT010 FM162100 22008KT P6SM SCT040 TEMPO 1621/1702 P6SM -SHRA VCTS BKN040CB FM170200 20006KT P6SM SCT040 RMK NXT FCST BY 170100Z

Sep-16@
19:00 UTC

Sep-16 @ 19:00 UTC

Sep-16@
21:00 UTC

Sep-16 @ 21:00 UTC

TAF CYXJ 161841Z 1619/1707 25008KT P6SM OVC010

Expired

Wind
  • 250° at 8 KTS
Cloud Levels
  • Overcast at 1,000' AGL

Sep-16@
19:00 UTC

Sep-16 @ 19:00 UTC

Sep-16@
21:00 UTC

Sep-16 @ 21:00 UTC

TEMPO 1619/1621 SCT010

Expired

Cloud Levels
  • Scattered at 1,000' AGL

Sep-16@
21:00 UTC

Sep-16 @ 21:00 UTC

Sep-17@
02:00 UTC

Sep-17 @ 02:00 UTC

TEMPO 1621/1702 P6SM -SHRA VCTS BKN040CB

Temporary

Temporary Changes expected for less than half the time period

Conditions
Light Rain, Area Thunderstorm
Cloud Levels
  • Broken at 4,000' AGL

Sep-16@
21:00 UTC

Sep-16 @ 21:00 UTC

Sep-17@
02:00 UTC

Sep-17 @ 02:00 UTC

FM162100 22008KT P6SM SCT040

From

From Standard forecast or significant change

Wind
  • 220° at 8 KTS
Cloud Levels
  • Scattered at 4,000' AGL

Sep-17@
02:00 UTC

Sep-17 @ 02:00 UTC

Sep-17@
07:00 UTC

Sep-17 @ 07:00 UTC

FM170200 20006KT P6SM SCT040 RMK NXT FCST BY 170100Z

From

From Standard forecast or significant change

Wind
  • 200° at 6 KTS
Cloud Levels
  • Scattered at 4,000' AGL